sensor_id;sensor_type;location;lat;lon;timestamp;pressure;altitude;pressure_sealevel;temperature;humidity
21730;BME280;11027;51.030;13.812;2023-05-25T00:00:09;100986.09;;;11.43;69.52
21730;BME280;11027;51.030;13.812;2023-05-25T00:02:35;100978.97;;;11.41;69.30
21730;BME280;11027;51.030;13.812;2023-05-25T00:05:00;100976.38;;;11.40;69.08
21730;BME280;11027;51.030;13.812;2023-05-25T00:07:26;100982.34;;;11.35;69.14
21730;BME280;11027;51.030;13.812;2023-05-25T00:09:51;100987.13;;;11.33;69.18
21730;BME280;11027;51.030;13.812;2023-05-25T00:12:17;100990.16;;;11.30;69.23
21730;BME280;11027;51.030;13.812;2023-05-25T00:14:42;100984.03;;;11.28;69.36
21730;BME280;11027;51.030;13.812;2023-05-25T00:17:07;100975.50;;;11.23;69.42
21730;BME280;11027;51.030;13.812;2023-05-25T00:19:34;100981.13;;;11.21;69.54
21730;BME280;11027;51.030;13.812;2023-05-25T00:21:59;100987.75;;;11.19;69.79
21730;BME280;11027;51.030;13.812;2023-05-25T00:24:28;100983.31;;;11.18;70.00
21730;BME280;11027;51.030;13.812;2023-05-25T00:26:55;100988.22;;;11.14;70.06
21730;BME280;11027;51.030;13.812;2023-05-25T00:29:21;100986.84;;;11.10;70.17
21730;BME280;11027;51.030;13.812;2023-05-25T00:31:46;100985.16;;;11.09;70.07
21730;BME280;11027;51.030;13.812;2023-05-25T00:34:11;100980.03;;;11.06;69.67
21730;BME280;11027;51.030;13.812;2023-05-25T00:36:36;100984.94;;;11.02;69.89
21730;BME280;11027;51.030;13.812;2023-05-25T00:39:02;100981.88;;;10.97;69.96
21730;BME280;11027;51.030;13.812;2023-05-25T00:41:27;100982.19;;;10.94;70.08
21730;BME280;11027;51.030;13.812;2023-05-25T00:43:52;100970.75;;;10.91;70.11
21730;BME280;11027;51.030;13.812;2023-05-25T00:46:18;100973.97;;;10.86;70.35
21730;BME280;11027;51.030;13.812;2023-05-25T00:48:44;100977.38;;;10.88;70.71
21730;BME280;11027;51.030;13.812;2023-05-25T00:51:10;100973.97;;;10.86;70.59
21730;BME280;11027;51.030;13.812;2023-05-25T00:53:37;100968.50;;;10.86;70.61
21730;BME280;11027;51.030;13.812;2023-05-25T00:56:15;100967.97;;;10.82;70.52
21730;BME280;11027;51.030;13.812;2023-05-25T00:58:45;100966.59;;;10.78;70.75
21730;BME280;11027;51.030;13.812;2023-05-25T01:01:12;100970.66;;;10.74;70.85
21730;BME280;11027;51.030;13.812;2023-05-25T01:03:40;100982.44;;;10.75;70.91
21730;BME280;11027;51.030;13.812;2023-05-25T01:06:11;100979.03;;;10.73;70.87
21730;BME280;11027;51.030;13.812;2023-05-25T01:08:39;100981.06;;;10.71;71.16
21730;BME280;11027;51.030;13.812;2023-05-25T01:11:10;100975.91;;;10.68;71.21
21730;BME280;11027;51.030;13.812;2023-05-25T01:13:37;100985.44;;;10.64;71.13
21730;BME280;11027;51.030;13.812;2023-05-25T01:16:04;100988.50;;;10.60;71.49
21730;BME280;11027;51.030;13.812;2023-05-25T01:18:30;100990.53;;;10.58;71.23
21730;BME280;11027;51.030;13.812;2023-05-25T01:23:32;100990.47;;;10.50;71.18
21730;BME280;11027;51.030;13.812;2023-05-25T01:26:02;100983.28;;;10.49;71.07
21730;BME280;11027;51.030;13.812;2023-05-25T01:28:34;100986.19;;;10.48;71.39
21730;BME280;11027;51.030;13.812;2023-05-25T01:31:03;100984.78;;;10.44;71.41
21730;BME280;11027;51.030;13.812;2023-05-25T01:33:30;100988.00;;;10.39;71.47
21730;BME280;11027;51.030;13.812;2023-05-25T01:35:56;101000.22;;;10.35;71.83
21730;BME280;11027;51.030;13.812;2023-05-25T01:38:22;100993.94;;;10.34;71.76
21730;BME280;11027;51.030;13.812;2023-05-25T01:40:47;100999.84;;;10.30;71.90
21730;BME280;11027;51.030;13.812;2023-05-25T01:43:12;100994.38;;;10.30;71.87
21730;BME280;11027;51.030;13.812;2023-05-25T01:45:38;100992.66;;;10.29;71.94
21730;BME280;11027;51.030;13.812;2023-05-25T01:48:15;100991.81;;;10.28;71.69
21730;BME280;11027;51.030;13.812;2023-05-25T01:50:53;101008.31;;;10.27;71.99
21730;BME280;11027;51.030;13.812;2023-05-25T01:53:22;101003.50;;;10.20;72.13
21730;BME280;11027;51.030;13.812;2023-05-25T01:56:08;101001.06;;;10.17;72.07
21730;BME280;11027;51.030;13.812;2023-05-25T01:58:38;100993.94;;;10.16;72.39
21730;BME280;11027;51.030;13.812;2023-05-25T02:01:07;100999.38;;;10.16;72.42
21730;BME280;11027;51.030;13.812;2023-05-25T02:03:33;100996.94;;;10.13;72.29
21730;BME280;11027;51.030;13.812;2023-05-25T02:05:58;100997.09;;;10.12;72.49
21730;BME280;11027;51.030;13.812;2023-05-25T02:08:24;101002.03;;;10.08;72.65
21730;BME280;11027;51.030;13.812;2023-05-25T02:10:49;101005.06;;;10.05;72.86
21730;BME280;11027;51.030;13.812;2023-05-25T02:13:14;101002.31;;;10.05;73.08
21730;BME280;11027;51.030;13.812;2023-05-25T02:15:40;101007.78;;;10.05;73.03
21730;BME280;11027;51.030;13.812;2023-05-25T02:18:05;101000.63;;;10.04;73.03
21730;BME280;11027;51.030;13.812;2023-05-25T02:20:32;101009.81;;;10.03;73.17
21730;BME280;11027;51.030;13.812;2023-05-25T02:22:57;101007.41;;;10.00;73.32
21730;BME280;11027;51.030;13.812;2023-05-25T02:25:23;101006.16;;;9.94;73.54
21730;BME280;11027;51.030;13.812;2023-05-25T02:27:49;101011.06;;;9.91;73.71
21730;BME280;11027;51.030;13.812;2023-05-25T02:30:14;101022.97;;;9.90;73.76
21730;BME280;11027;51.030;13.812;2023-05-25T02:32:39;101027.72;;;9.88;73.69
21730;BME280;11027;51.030;13.812;2023-05-25T02:35:05;101023.25;;;9.87;73.72
21730;BME280;11027;51.030;13.812;2023-05-25T02:37:31;101016.28;;;9.84;73.53
21730;BME280;11027;51.030;13.812;2023-05-25T02:39:57;101019.44;;;9.79;73.75
21730;BME280;11027;51.030;13.812;2023-05-25T02:42:22;101024.34;;;9.76;73.93
21730;BME280;11027;51.030;13.812;2023-05-25T02:44:47;101027.22;;;9.74;74.00
21730;BME280;11027;51.030;13.812;2023-05-25T02:47:16;101022.94;;;9.72;73.93
21730;BME280;11027;51.030;13.812;2023-05-25T02:49:42;101024.41;;;9.66;74.02
21730;BME280;11027;51.030;13.812;2023-05-25T02:52:07;101026.13;;;9.67;74.21
21730;BME280;11027;51.030;13.812;2023-05-25T02:54:33;101021.84;;;9.65;74.27
21730;BME280;11027;51.030;13.812;2023-05-25T02:56:58;101021.28;;;9.61;74.27
21730;BME280;11027;51.030;13.812;2023-05-25T02:59:23;101025.03;;;9.60;74.42
21730;BME280;11027;51.030;13.812;2023-05-25T03:01:49;101029.63;;;9.59;74.53
21730;BME280;11027;51.030;13.812;2023-05-25T03:04:14;101036.53;;;9.54;74.28
21730;BME280;11027;51.030;13.812;2023-05-25T03:06:39;101036.69;;;9.52;74.17
21730;BME280;11027;51.030;13.812;2023-05-25T03:09:05;101039.69;;;9.49;74.54
21730;BME280;11027;51.030;13.812;2023-05-25T03:11:31;101046.28;;;9.47;74.44
21730;BME280;11027;51.030;13.812;2023-05-25T03:13:56;101040.16;;;9.45;74.53
21730;BME280;11027;51.030;13.812;2023-05-25T03:16:21;101046.63;;;9.44;74.48
21730;BME280;11027;51.030;13.812;2023-05-25T03:18:47;101044.88;;;9.43;74.70
21730;BME280;11027;51.030;13.812;2023-05-25T03:21:12;101048.63;;;9.41;74.91
21730;BME280;11027;51.030;13.812;2023-05-25T03:23:37;101048.63;;;9.41;75.04
21730;BME280;11027;51.030;13.812;2023-05-25T03:26:03;101046.06;;;9.40;74.99
21730;BME280;11027;51.030;13.812;2023-05-25T03:28:28;101043.47;;;9.38;74.60
21730;BME280;11027;51.030;13.812;2023-05-25T03:30:53;101052.66;;;9.37;74.80
21730;BME280;11027;51.030;13.812;2023-05-25T03:33:18;101055.66;;;9.34;74.87
21730;BME280;11027;51.030;13.812;2023-05-25T03:35:44;101048.53;;;9.33;75.03
21730;BME280;11027;51.030;13.812;2023-05-25T03:38:10;101052.94;;;9.34;74.75
21730;BME280;11027;51.030;13.812;2023-05-25T03:40:35;101063.81;;;9.34;75.04
21730;BME280;11027;51.030;13.812;2023-05-25T03:43:00;101067.56;;;9.33;75.44
21730;BME280;11027;51.030;13.812;2023-05-25T03:45:26;101077.03;;;9.29;75.53
21730;BME280;11027;51.030;13.812;2023-05-25T03:47:51;101076.00;;;9.30;75.67
21730;BME280;11027;51.030;13.812;2023-05-25T03:50:16;101075.03;;;9.31;75.86
21730;BME280;11027;51.030;13.812;2023-05-25T03:52:42;101076.00;;;9.30;75.70
21730;BME280;11027;51.030;13.812;2023-05-25T03:55:08;101080.59;;;9.30;75.75
21730;BME280;11027;51.030;13.812;2023-05-25T03:57:33;101088.50;;;9.23;75.88
21730;BME280;11027;51.030;13.812;2023-05-25T03:59:58;101087.38;;;9.16;76.19
21730;BME280;11027;51.030;13.812;2023-05-25T04:02:23;101087.66;;;9.13;76.50
21730;BME280;11027;51.030;13.812;2023-05-25T04:04:49;101092.25;;;9.12;77.00
21730;BME280;11027;51.030;13.812;2023-05-25T04:07:17;101089.25;;;9.15;76.59
21730;BME280;11027;51.030;13.812;2023-05-25T04:09:42;101085.94;;;9.21;76.52
21730;BME280;11027;51.030;13.812;2023-05-25T04:12:08;101092.09;;;9.24;76.39
21730;BME280;11027;51.030;13.812;2023-05-25T04:14:33;101091.94;;;9.25;76.41
21730;BME280;11027;51.030;13.812;2023-05-25T04:16:58;101105.22;;;9.28;76.13
21730;BME280;11027;51.030;13.812;2023-05-25T04:19:23;101100.50;;;9.30;76.24
21730;BME280;11027;51.030;13.812;2023-05-25T04:21:49;101099.50;;;9.31;76.06
21730;BME280;11027;51.030;13.812;2023-05-25T04:24:14;101098.94;;;9.28;76.16
21730;BME280;11027;51.030;13.812;2023-05-25T04:26:39;101105.97;;;9.20;76.32
21730;BME280;11027;51.030;13.812;2023-05-25T04:29:05;101104.41;;;9.18;76.40
21730;BME280;11027;51.030;13.812;2023-05-25T04:31:31;101101.97;;;9.15;76.50
21730;BME280;11027;51.030;13.812;2023-05-25T04:33:56;101099.41;;;9.13;76.54
21730;BME280;11027;51.030;13.812;2023-05-25T04:36:23;101105.72;;;9.14;76.60
21730;BME280;11027;51.030;13.812;2023-05-25T04:38:48;101103.69;;;9.16;76.57
21730;BME280;11027;51.030;13.812;2023-05-25T04:41:16;101099.97;;;9.17;76.56
21730;BME280;11027;51.030;13.812;2023-05-25T04:43:41;101101.13;;;9.14;76.41
21730;BME280;11027;51.030;13.812;2023-05-25T04:46:09;101100.28;;;9.14;76.51
21730;BME280;11027;51.030;13.812;2023-05-25T04:48:35;101103.69;;;9.16;76.54
21730;BME280;11027;51.030;13.812;2023-05-25T04:51:03;101101.69;;;9.18;76.73
21730;BME280;11027;51.030;13.812;2023-05-25T04:53:28;101105.09;;;9.20;76.71
21730;BME280;11027;51.030;13.812;2023-05-25T04:55:54;101108.53;;;9.22;76.67
21730;BME280;11027;51.030;13.812;2023-05-25T04:58:21;101099.69;;;9.20;76.73
21730;BME280;11027;51.030;13.812;2023-05-25T05:00:46;101108.97;;;9.27;76.63
21730;BME280;11027;51.030;13.812;2023-05-25T05:03:11;101092.75;;;9.35;76.48
21730;BME280;11027;51.030;13.812;2023-05-25T05:05:37;101104.72;;;9.43;76.63
21730;BME280;11027;51.030;13.812;2023-05-25T05:08:02;101091.53;;;9.48;76.67
21730;BME280;11027;51.030;13.812;2023-05-25T05:10:28;101097.69;;;9.50;76.46
21730;BME280;11027;51.030;13.812;2023-05-25T05:12:53;101102.09;;;9.51;76.40
21730;BME280;11027;51.030;13.812;2023-05-25T05:15:18;101095.97;;;9.49;76.62
21730;BME280;11027;51.030;13.812;2023-05-25T05:17:44;101096.66;;;9.51;76.56
21730;BME280;11027;51.030;13.812;2023-05-25T05:20:09;101092.06;;;9.51;76.78
21730;BME280;11027;51.030;13.812;2023-05-25T05:22:36;101096.53;;;9.52;76.53
21730;BME280;11027;51.030;13.812;2023-05-25T05:25:01;101086.34;;;9.54;76.58
21730;BME280;11027;51.030;13.812;2023-05-25T05:27:26;101090.34;;;9.60;76.87
21730;BME280;11027;51.030;13.812;2023-05-25T05:29:51;101098.03;;;9.65;76.95
21730;BME280;11027;51.030;13.812;2023-05-25T05:32:17;101093.28;;;9.67;76.91
21730;BME280;11027;51.030;13.812;2023-05-25T05:34:42;101103.41;;;9.74;76.71
21730;BME280;11027;51.030;13.812;2023-05-25T05:37:07;101091.06;;;9.80;76.64
21730;BME280;11027;51.030;13.812;2023-05-25T05:39:33;101102.19;;;9.87;76.50
21730;BME280;11027;51.030;13.812;2023-05-25T05:41:58;101103.31;;;9.94;76.36
21730;BME280;11027;51.030;13.812;2023-05-25T05:44:23;101098.38;;;9.97;76.33
21730;BME280;11027;51.030;13.812;2023-05-25T05:46:49;101106.25;;;10.00;76.11
21730;BME280;11027;51.030;13.812;2023-05-25T05:49:14;101100.97;;;9.99;76.06
21730;BME280;11027;51.030;13.812;2023-05-25T05:51:39;101099.97;;;10.00;75.88
21730;BME280;11027;51.030;13.812;2023-05-25T05:54:05;101092.50;;;10.02;75.59
21730;BME280;11027;51.030;13.812;2023-05-25T05:56:30;101103.75;;;10.07;75.49
21730;BME280;11027;51.030;13.812;2023-05-25T05:58:55;101101.44;;;10.12;75.33
21730;BME280;11027;51.030;13.812;2023-05-25T06:01:21;101104.88;;;10.14;75.16
21730;BME280;11027;51.030;13.812;2023-05-25T06:03:47;101110.69;;;10.19;75.03
21730;BME280;11027;51.030;13.812;2023-05-25T06:06:12;101113.97;;;10.23;74.80
21730;BME280;11027;51.030;13.812;2023-05-25T06:08:38;101106.34;;;10.27;74.85
21730;BME280;11027;51.030;13.812;2023-05-25T06:11:05;101108.47;;;10.33;74.78
21730;BME280;11027;51.030;13.812;2023-05-25T06:13:30;101100.84;;;10.36;74.59
21730;BME280;11027;51.030;13.812;2023-05-25T06:15:55;101105.84;;;10.41;74.42
21730;BME280;11027;51.030;13.812;2023-05-25T06:18:20;101106.19;;;10.46;74.38
21730;BME280;11027;51.030;13.812;2023-05-25T06:20:46;101106.59;;;10.51;74.31
21730;BME280;11027;51.030;13.812;2023-05-25T06:23:11;101103.38;;;10.56;74.21
21730;BME280;11027;51.030;13.812;2023-05-25T06:25:38;101102.25;;;10.58;74.14
21730;BME280;11027;51.030;13.812;2023-05-25T06:28:03;101104.47;;;10.63;74.10
21730;BME280;11027;51.030;13.812;2023-05-25T06:30:29;101099.56;;;10.67;74.17
21730;BME280;11027;51.030;13.812;2023-05-25T06:32:55;101098.41;;;10.69;73.93
21730;BME280;11027;51.030;13.812;2023-05-25T06:35:20;101090.75;;;10.73;73.99
21730;BME280;11027;51.030;13.812;2023-05-25T06:37:46;101096.56;;;10.78;73.86
21730;BME280;11027;51.030;13.812;2023-05-25T06:40:13;101094.25;;;10.83;73.74
21730;BME280;11027;51.030;13.812;2023-05-25T06:42:38;101098.34;;;10.87;73.77
21730;BME280;11027;51.030;13.812;2023-05-25T06:45:04;101097.03;;;10.91;73.76
21730;BME280;11027;51.030;13.812;2023-05-25T06:47:29;101094.66;;;10.96;73.61
21730;BME280;11027;51.030;13.812;2023-05-25T06:49:55;101094.34;;;10.99;73.37
21730;BME280;11027;51.030;13.812;2023-05-25T06:52:20;101102.72;;;11.06;73.09
21730;BME280;11027;51.030;13.812;2023-05-25T06:54:45;101096.78;;;11.11;72.73
21730;BME280;11027;51.030;13.812;2023-05-25T06:57:11;101099.06;;;11.15;72.55
21730;BME280;11027;51.030;13.812;2023-05-25T06:59:36;101094.13;;;11.19;72.37
21730;BME280;11027;51.030;13.812;2023-05-25T07:02:01;101095.53;;;11.23;72.41
21730;BME280;11027;51.030;13.812;2023-05-25T07:04:27;101093.13;;;11.28;72.24
21730;BME280;11027;51.030;13.812;2023-05-25T07:06:52;101087.03;;;11.34;72.39
21730;BME280;11027;51.030;13.812;2023-05-25T07:09:18;101090.13;;;11.39;71.99
21730;BME280;11027;51.030;13.812;2023-05-25T07:11:43;101093.22;;;11.45;72.05
21730;BME280;11027;51.030;13.812;2023-05-25T07:14:08;101096.31;;;11.50;71.85
21730;BME280;11027;51.030;13.812;2023-05-25T07:16:33;101096.34;;;11.58;71.82
21730;BME280;11027;51.030;13.812;2023-05-25T07:18:59;101095.84;;;11.63;71.61
21730;BME280;11027;51.030;13.812;2023-05-25T07:21:24;101090.56;;;11.69;71.41
21730;BME280;11027;51.030;13.812;2023-05-25T07:23:49;101092.63;;;11.75;71.11
21730;BME280;11027;51.030;13.812;2023-05-25T07:26:15;101096.44;;;11.82;71.08
21730;BME280;11027;51.030;13.812;2023-05-25T07:28:40;101091.34;;;11.88;70.89
21730;BME280;11027;51.030;13.812;2023-05-25T07:31:06;101091.38;;;11.96;70.92
21730;BME280;11027;51.030;13.812;2023-05-25T07:33:32;101091.56;;;12.03;70.74
21730;BME280;11027;51.030;13.812;2023-05-25T07:35:57;101086.63;;;12.06;70.35
21730;BME280;11027;51.030;13.812;2023-05-25T07:38:23;101084.22;;;12.11;70.17
21730;BME280;11027;51.030;13.812;2023-05-25T07:40:49;101077.41;;;12.15;69.94
21730;BME280;11027;51.030;13.812;2023-05-25T07:43:14;101074.88;;;12.22;70.00
21730;BME280;11027;51.030;13.812;2023-05-25T07:45:39;101075.03;;;12.29;69.82
21730;BME280;11027;51.030;13.812;2023-05-25T07:48:05;101079.81;;;12.35;69.54
21730;BME280;11027;51.030;13.812;2023-05-25T07:50:31;101084.59;;;12.41;69.86
21730;BME280;11027;51.030;13.812;2023-05-25T07:52:57;101080.66;;;12.44;69.27
21730;BME280;11027;51.030;13.812;2023-05-25T07:55:25;101078.63;;;12.46;69.44
21730;BME280;11027;51.030;13.812;2023-05-25T07:57:50;101088.69;;;12.53;68.84
21730;BME280;11027;51.030;13.812;2023-05-25T08:00:16;101089.38;;;12.64;68.24
21730;BME280;11027;51.030;13.812;2023-05-25T08:02:42;101093.81;;;12.73;67.76
21730;BME280;11027;51.030;13.812;2023-05-25T08:05:07;101095.19;;;12.77;67.56
21730;BME280;11027;51.030;13.812;2023-05-25T08:07:33;101092.25;;;12.78;67.78
21730;BME280;11027;51.030;13.812;2023-05-25T08:09:58;101092.78;;;12.82;67.58
21730;BME280;11027;51.030;13.812;2023-05-25T08:12:24;101093.44;;;12.92;67.50
21730;BME280;11027;51.030;13.812;2023-05-25T08:14:49;101093.41;;;13.09;66.93
21730;BME280;11027;51.030;13.812;2023-05-25T08:17:15;101084.84;;;13.20;66.07
21730;BME280;11027;51.030;13.812;2023-05-25T08:19:40;101095.44;;;13.23;65.79
21730;BME280;11027;51.030;13.812;2023-05-25T08:22:05;101089.97;;;13.23;65.08
21730;BME280;11027;51.030;13.812;2023-05-25T08:24:31;101085.50;;;13.22;65.06
21730;BME280;11027;51.030;13.812;2023-05-25T08:26:56;101089.47;;;13.19;65.11
21730;BME280;11027;51.030;13.812;2023-05-25T08:29:21;101087.75;;;13.18;65.19
21730;BME280;11027;51.030;13.812;2023-05-25T08:31:46;101088.94;;;13.24;65.04
21730;BME280;11027;51.030;13.812;2023-05-25T08:34:14;101089.59;;;13.26;64.37
21730;BME280;11027;51.030;13.812;2023-05-25T08:36:40;101088.59;;;13.27;64.17
21730;BME280;11027;51.030;13.812;2023-05-25T08:39:05;101087.56;;;13.28;64.05
21730;BME280;11027;51.030;13.812;2023-05-25T08:41:34;101087.25;;;13.31;63.81
21730;BME280;11027;51.030;13.812;2023-05-25T08:44:00;101089.28;;;13.37;63.76
21730;BME280;11027;51.030;13.812;2023-05-25T08:46:30;101093.38;;;13.42;63.87
21730;BME280;11027;51.030;13.812;2023-05-25T08:49:04;101093.00;;;13.45;63.82
21730;BME280;11027;51.030;13.812;2023-05-25T08:51:34;101093.50;;;13.48;63.83
21730;BME280;11027;51.030;13.812;2023-05-25T08:54:08;101088.00;;;13.56;63.44
21730;BME280;11027;51.030;13.812;2023-05-25T08:56:39;101081.97;;;13.61;63.12
21730;BME280;11027;51.030;13.812;2023-05-25T09:02:51;101088.69;;;13.90;62.61
21730;BME280;11027;51.030;13.812;2023-05-25T09:05:18;101079.41;;;13.91;62.88
21730;BME280;11027;51.030;13.812;2023-05-25T09:07:44;101095.50;;;13.94;62.95
21730;BME280;11027;51.030;13.812;2023-05-25T09:10:11;101092.06;;;14.00;63.42
21730;BME280;11027;51.030;13.812;2023-05-25T09:12:37;101095.41;;;14.10;62.40
21730;BME280;11027;51.030;13.812;2023-05-25T09:15:03;101086.81;;;14.13;61.62
21730;BME280;11027;51.030;13.812;2023-05-25T09:17:28;101086.09;;;14.19;61.63
21730;BME280;11027;51.030;13.812;2023-05-25T09:19:54;101086.56;;;14.23;62.17
21730;BME280;11027;51.030;13.812;2023-05-25T09:22:19;101092.84;;;14.32;61.42
21730;BME280;11027;51.030;13.812;2023-05-25T09:24:45;101085.59;;;14.39;61.14
21730;BME280;11027;51.030;13.812;2023-05-25T09:27:11;101094.50;;;14.41;61.28
21730;BME280;11027;51.030;13.812;2023-05-25T09:29:36;101099.63;;;14.44;61.32
21730;BME280;11027;51.030;13.812;2023-05-25T09:32:05;101084.50;;;14.48;61.51
21730;BME280;11027;51.030;13.812;2023-05-25T09:34:31;101091.81;;;14.56;61.89
21730;BME280;11027;51.030;13.812;2023-05-25T09:37:02;101093.28;;;14.67;61.08
21730;BME280;11027;51.030;13.812;2023-05-25T09:39:28;101091.50;;;14.74;60.77
21730;BME280;11027;51.030;13.812;2023-05-25T09:41:54;101098.25;;;14.86;60.81
21730;BME280;11027;51.030;13.812;2023-05-25T09:44:19;101095.16;;;15.04;60.20
21730;BME280;11027;51.030;13.812;2023-05-25T09:46:45;101099.91;;;15.25;58.27
21730;BME280;11027;51.030;13.812;2023-05-25T09:49:10;101094.91;;;15.44;58.48
21730;BME280;11027;51.030;13.812;2023-05-25T09:51:36;101099.88;;;15.55;56.74
21730;BME280;11027;51.030;13.812;2023-05-25T09:54:03;101096.00;;;15.64;56.62
21730;BME280;11027;51.030;13.812;2023-05-25T09:56:30;101093.53;;;15.69;56.25
21730;BME280;11027;51.030;13.812;2023-05-25T09:58:56;101099.22;;;15.68;56.76
21730;BME280;11027;51.030;13.812;2023-05-25T10:01:22;101102.81;;;15.68;57.04
21730;BME280;11027;51.030;13.812;2023-05-25T10:03:48;101101.09;;;15.67;56.74
21730;BME280;11027;51.030;13.812;2023-05-25T10:06:15;101103.84;;;15.67;57.04
21730;BME280;11027;51.030;13.812;2023-05-25T10:08:43;101103.31;;;15.72;56.17
21730;BME280;11027;51.030;13.812;2023-05-25T10:11:11;101102.56;;;15.78;56.63
21730;BME280;11027;51.030;13.812;2023-05-25T10:13:39;101102.81;;;15.83;56.44
21730;BME280;11027;51.030;13.812;2023-05-25T10:16:07;101094.28;;;15.93;56.90
21730;BME280;11027;51.030;13.812;2023-05-25T10:18:35;101091.34;;;15.94;56.94
21730;BME280;11027;51.030;13.812;2023-05-25T10:21:07;101087.53;;;15.95;56.97
21730;BME280;11027;51.030;13.812;2023-05-25T10:23:38;101096.00;;;15.94;55.50
21730;BME280;11027;51.030;13.812;2023-05-25T10:26:08;101092.84;;;15.97;55.80
21730;BME280;11027;51.030;13.812;2023-05-25T10:28:37;101089.31;;;16.03;55.63
21730;BME280;11027;51.030;13.812;2023-05-25T10:31:04;101089.84;;;16.13;55.63
21730;BME280;11027;51.030;13.812;2023-05-25T10:33:30;101086.97;;;16.22;55.71
21730;BME280;11027;51.030;13.812;2023-05-25T10:35:56;101098.06;;;16.28;54.93
21730;BME280;11027;51.030;13.812;2023-05-25T10:38:24;101095.97;;;16.30;55.31
21730;BME280;11027;51.030;13.812;2023-05-25T10:40:52;101089.59;;;16.30;54.83
21730;BME280;11027;51.030;13.812;2023-05-25T10:43:18;101083.72;;;16.33;55.53
21730;BME280;11027;51.030;13.812;2023-05-25T10:45:46;101086.53;;;16.39;55.23
21730;BME280;11027;51.030;13.812;2023-05-25T10:48:11;101096.53;;;16.47;54.26
21730;BME280;11027;51.030;13.812;2023-05-25T10:50:36;101096.16;;;16.50;53.74
21730;BME280;11027;51.030;13.812;2023-05-25T10:53:07;101085.59;;;16.54;53.39
21730;BME280;11027;51.030;13.812;2023-05-25T10:55:42;101082.28;;;16.58;53.70
21730;BME280;11027;51.030;13.812;2023-05-25T10:58:13;101071.69;;;16.62;53.09
21730;BME280;11027;51.030;13.812;2023-05-25T11:00:39;101068.38;;;16.67;53.37
21730;BME280;11027;51.030;13.812;2023-05-25T11:03:07;101083.63;;;16.69;52.85
21730;BME280;11027;51.030;13.812;2023-05-25T11:05:35;101077.53;;;16.74;52.54
21730;BME280;11027;51.030;13.812;2023-05-25T11:08:01;101080.34;;;16.80;52.31
21730;BME280;11027;51.030;13.812;2023-05-25T11:13:37;101066.50;;;16.74;51.89
21730;BME280;11027;51.030;13.812;2023-05-25T11:16:11;101067.16;;;16.76;51.46
21730;BME280;11027;51.030;13.812;2023-05-25T11:18:37;101056.81;;;16.78;50.31
21730;BME280;11027;51.030;13.812;2023-05-25T11:21:15;101062.13;;;16.79;50.92
21730;BME280;11027;51.030;13.812;2023-05-25T11:24:02;101051.19;;;16.86;51.18
21730;BME280;11027;51.030;13.812;2023-05-25T11:26:29;101047.41;;;16.87;51.02
21730;BME280;11027;51.030;13.812;2023-05-25T11:28:56;101051.66;;;16.96;51.09
21730;BME280;11027;51.030;13.812;2023-05-25T11:31:32;101054.72;;;17.08;49.78
21730;BME280;11027;51.030;13.812;2023-05-25T11:34:00;101050.31;;;17.14;48.95
21730;BME280;11027;51.030;13.812;2023-05-25T11:36:27;101052.69;;;17.17;49.07
21730;BME280;11027;51.030;13.812;2023-05-25T11:38:56;101053.56;;;17.24;50.20
21730;BME280;11027;51.030;13.812;2023-05-25T11:41:22;101052.75;;;17.37;50.71
21730;BME280;11027;51.030;13.812;2023-05-25T11:43:48;101044.78;;;17.49;49.97
21730;BME280;11027;51.030;13.812;2023-05-25T11:46:15;101034.22;;;17.59;50.28
21730;BME280;11027;51.030;13.812;2023-05-25T11:48:44;101038.50;;;17.68;48.60
21730;BME280;11027;51.030;13.812;2023-05-25T11:51:10;101035.16;;;17.79;48.01
21730;BME280;11027;51.030;13.812;2023-05-25T11:53:41;101042.84;;;17.91;47.78
21730;BME280;11027;51.030;13.812;2023-05-25T11:56:06;101039.06;;;17.98;45.67
21730;BME280;11027;51.030;13.812;2023-05-25T11:58:33;101036.53;;;18.10;46.29
21730;BME280;11027;51.030;13.812;2023-05-25T12:01:13;101036.97;;;18.21;46.84
21730;BME280;11027;51.030;13.812;2023-05-25T12:03:39;101028.06;;;18.32;46.62
21730;BME280;11027;51.030;13.812;2023-05-25T12:06:05;101034.44;;;18.46;46.68
21730;BME280;11027;51.030;13.812;2023-05-25T12:08:32;101026.38;;;18.57;44.93
21730;BME280;11027;51.030;13.812;2023-05-25T12:10:58;101019.59;;;18.67;44.66
21730;BME280;11027;51.030;13.812;2023-05-25T12:13:23;101039.13;;;18.78;44.88
21730;BME280;11027;51.030;13.812;2023-05-25T12:15:48;101012.97;;;18.94;45.19
21730;BME280;11027;51.030;13.812;2023-05-25T12:18:14;101012.53;;;19.11;44.67
21730;BME280;11027;51.030;13.812;2023-05-25T12:20:40;101019.47;;;19.27;44.33
21730;BME280;11027;51.030;13.812;2023-05-25T12:23:05;101005.44;;;19.35;44.42
21730;BME280;11027;51.030;13.812;2023-05-25T12:25:31;101008.34;;;19.47;43.99
21730;BME280;11027;51.030;13.812;2023-05-25T12:28:13;101015.09;;;19.64;43.02
21730;BME280;11027;51.030;13.812;2023-05-25T12:30:39;101004.19;;;19.83;43.26
21730;BME280;11027;51.030;13.812;2023-05-25T12:33:04;101000.88;;;20.06;42.83
21730;BME280;11027;51.030;13.812;2023-05-25T12:35:43;101003.31;;;20.21;41.65
21730;BME280;11027;51.030;13.812;2023-05-25T12:38:12;101006.69;;;20.23;41.60
21730;BME280;11027;51.030;13.812;2023-05-25T12:40:39;100994.63;;;20.42;41.96
21730;BME280;11027;51.030;13.812;2023-05-25T12:43:05;100976.97;;;20.68;41.82
21730;BME280;11027;51.030;13.812;2023-05-25T12:45:30;100989.50;;;20.89;42.12
21730;BME280;11027;51.030;13.812;2023-05-25T12:47:56;100987.91;;;21.00;39.25